Time;durP1;ratioP1;P1;durP2;ratioP2;P2;SDS_P1;SDS_P2;PMS_P1;PMS_P2;Temp;Humidity;BMP_temperature;BMP_pressure;BME280_temperature;BME280_humidity;BME280_pressure;Samples;Min_cycle;Max_cycle;Signal;HPM_P1;HPM_P2
2023/07/07 00:02:45;;;;;;;7.20;5.70;;;;;;;14.33;50.93;101403.36;105170;1287;61294;-88
2023/07/07 00:06:32;;;;;;;6.20;5.50;;;;;;;14.35;50.93;101404.55;105233;1288;61117;-88
2023/07/07 00:10:27;;;;;;;8.00;6.00;;;;;;;14.34;51.05;101405.94;105257;1288;74688;-88
2023/07/07 00:14:14;;;;;;;8.80;6.00;;;;;;;14.30;51.10;101408.96;104694;1296;67700;-87
2023/07/07 00:18:00;;;;;;;11.70;6.40;;;;;;;14.30;51.16;101417.13;104561;1297;70705;-88
2023/07/07 00:21:58;;;;;;;8.10;5.90;;;;;;;14.25;51.24;101419.63;104569;1297;61284;-88
2023/07/07 00:25:34;;;;;;;7.70;5.40;;;;;;;14.23;51.37;101418.45;104638;1295;61406;-87
2023/07/07 00:29:28;;;;;;;7.10;5.20;;;;;;;14.16;51.39;101414.42;97285;1297;10002635;-87
2023/07/07 00:33:15;;;;;;;14.60;5.50;;;;;;;14.09;51.48;101416.98;100367;1305;5003237;-87
2023/07/07 00:37:02;;;;;;;6.90;5.70;;;;;;;14.02;51.50;101415.91;104016;1302;61707;-88
2023/07/07 00:40:48;;;;;;;6.70;4.80;;;;;;;13.99;51.56;101411.98;103198;1315;73349;-88
2023/07/07 00:44:38;;;;;;;6.10;4.70;;;;;;;13.99;51.55;101413.55;103325;1311;67771;-88
2023/07/07 00:48:25;;;;;;;5.20;4.20;;;;;;;13.93;51.58;101414.67;103334;1311;72017;-87
2023/07/07 00:52:16;;;;;;;6.40;4.20;;;;;;;13.86;51.63;101418.95;103375;1308;61153;-87
2023/07/07 00:56:03;;;;;;;5.90;5.30;;;;;;;13.81;51.74;101416.95;103535;1308;61423;-88
2023/07/07 00:59:50;;;;;;;5.10;4.50;;;;;;;13.78;51.79;101417.35;102689;1317;74660;-87
2023/07/07 01:03:39;;;;;;;6.30;4.30;;;;;;;13.74;51.88;101421.41;102683;1316;67483;-87
2023/07/07 01:07:26;;;;;;;5.30;4.10;;;;;;;13.70;51.99;101426.84;102255;1323;72647;-88
2023/07/07 01:11:13;;;;;;;7.90;5.40;;;;;;;13.65;52.14;101428.30;102659;1317;60164;-87
2023/07/07 01:15:00;;;;;;;5.90;5.30;;;;;;;13.58;52.12;101429.95;102739;1319;61092;-88
2023/07/07 01:19:15;;;;;;;7.70;5.70;;;;;;;13.56;52.25;101428.44;103340;1311;73436;-88
2023/07/07 01:23:04;;;;;;;6.20;4.90;;;;;;;13.54;52.29;101431.06;103441;1313;67452;-87
2023/07/07 01:27:00;;;;;;;7.90;5.60;;;;;;;13.50;52.41;101430.30;102466;1320;71455;-88
2023/07/07 01:30:55;;;;;;;8.40;6.10;;;;;;;13.46;52.40;101429.30;102800;1319;59453;-88
2023/07/07 01:34:42;;;;;;;6.90;5.60;;;;;;;13.44;52.50;101427.09;102851;1316;61377;-86
2023/07/07 01:38:48;;;;;;;5.90;5.30;;;;;;;13.40;52.58;101426.30;103381;1311;75917;-86
2023/07/07 01:42:38;;;;;;;9.70;6.40;;;;;;;13.37;52.60;101423.73;102827;1320;67151;-87
2023/07/07 01:46:25;;;;;;;6.80;6.00;;;;;;;13.30;52.70;101426.61;102928;1311;74305;-88
2023/07/07 01:50:18;;;;;;;6.70;4.90;;;;;;;13.21;52.74;101428.45;103163;1314;61272;-87
2023/07/07 01:54:06;;;;;;;6.90;4.80;;;;;;;13.10;52.50;101428.05;102584;1318;61363;-87
2023/07/07 01:57:53;;;;;;;6.90;4.70;;;;;;;12.95;52.88;101433.64;102689;1321;75749;-87
2023/07/07 02:01:39;;;;;;;9.20;5.60;;;;;;;12.99;52.96;101435.84;102573;1317;68685;-87
2023/07/07 02:05:26;;;;;;;7.20;5.90;;;;;;;12.97;52.97;101432.76;103237;1310;72444;-88
2023/07/07 02:09:13;;;;;;;8.20;5.50;;;;;;;12.97;53.06;101432.41;103375;1311;61174;-87
2023/07/07 02:13:07;;;;;;;7.70;5.30;;;;;;;12.93;53.10;101438.68;103699;1304;61407;-87
2023/07/07 02:16:55;;;;;;;10.50;6.90;;;;;;;12.92;53.25;101441.98;103334;1312;73320;-88
2023/07/07 02:20:49;;;;;;;7.30;5.30;;;;;;;12.90;53.24;101442.71;103356;1311;67617;-87
2023/07/07 02:24:36;;;;;;;8.80;5.50;;;;;;;12.85;53.17;101443.11;103289;1310;75261;-88
2023/07/07 02:28:23;;;;;;;7.30;5.60;;;;;;;12.76;53.29;101443.04;102827;1315;61427;-88
2023/07/07 02:32:10;;;;;;;7.60;5.70;;;;;;;12.71;53.35;101441.36;103536;1308;61230;-87
2023/07/07 02:35:57;;;;;;;6.30;5.20;;;;;;;12.71;53.49;101439.46;103629;1308;75854;-87
2023/07/07 02:39:44;;;;;;;6.70;5.30;;;;;;;12.69;53.42;101442.95;102901;1314;67619;-87
2023/07/07 02:43:38;;;;;;;6.50;5.10;;;;;;;12.66;53.47;101444.54;102401;1320;73194;-87
2023/07/07 02:47:25;;;;;;;5.90;5.40;;;;;;;12.65;53.60;101441.10;102310;1319;61230;-87
2023/07/07 02:51:14;;;;;;;7.80;5.80;;;;;;;12.63;53.62;101438.02;102509;1319;61208;-87
2023/07/07 02:55:01;;;;;;;6.90;5.80;;;;;;;12.62;53.63;101442.52;103058;1317;73407;-87
2023/07/07 02:58:48;;;;;;;5.00;4.50;;;;;;;12.60;53.62;101447.20;103009;1317;68232;-87
2023/07/07 03:02:35;;;;;;;5.90;5.10;;;;;;;12.56;53.69;101452.77;102658;1316;71268;-87
2023/07/07 03:06:40;;;;;;;5.00;4.60;;;;;;;12.52;53.71;101456.11;103115;1311;61086;-87
2023/07/07 03:10:27;;;;;;;5.70;4.60;;;;;;;12.50;53.81;101453.36;102790;1320;61309;-87
2023/07/07 03:14:15;;;;;;;4.80;4.40;;;;;;;12.48;53.83;101457.02;102605;1316;73355;-86
2023/07/07 03:18:01;;;;;;;4.70;4.30;;;;;;;12.48;53.87;101456.31;103474;1310;67330;-87
2023/07/07 03:21:47;;;;;;;6.10;5.60;;;;;;;12.45;53.93;101463.81;104037;1306;72558;-87
2023/07/07 03:25:34;;;;;;;6.90;5.40;;;;;;;12.45;54.13;101466.92;103919;1305;61131;-87
2023/07/07 03:29:21;;;;;;;10.00;6.50;;;;;;;12.46;54.27;101470.55;103931;1304;158632;-87
2023/07/07 03:33:13;;;;;;;7.40;6.40;;;;;;;12.43;54.38;101476.46;104012;1305;76045;-87
2023/07/07 03:36:58;;;;;;;7.40;5.80;;;;;;;12.44;54.40;101480.95;103530;1308;71194;-86
2023/07/07 03:40:47;;;;;;;7.70;5.90;;;;;;;12.48;54.53;101485.03;104136;1303;72104;-86
2023/07/07 03:44:32;;;;;;;5.70;5.10;;;;;;;12.54;54.53;101485.84;104159;1302;61401;-85
2023/07/07 03:48:19;;;;;;;6.30;5.70;;;;;;;12.56;54.60;101486.68;104583;1299;61218;-87
2023/07/07 03:52:06;;;;;;;5.10;4.60;;;;;;;12.64;54.68;101487.82;104575;1297;74440;-87
2023/07/07 03:55:53;;;;;;;6.00;5.20;;;;;;;12.71;54.85;101489.98;103995;1308;70001;-87
2023/07/07 03:59:39;;;;;;;5.30;4.80;;;;;;;12.77;54.85;101490.61;103910;1308;72428;-87
2023/07/07 04:03:26;;;;;;;5.30;4.80;;;;;;;12.86;54.94;101494.32;103977;1310;59348;-87
2023/07/07 04:07:17;;;;;;;6.50;4.80;;;;;;;12.95;54.99;101498.72;104031;1305;61301;-86
2023/07/07 04:11:03;;;;;;;5.10;4.60;;;;;;;13.03;55.17;101500.84;104001;1306;72388;-86
2023/07/07 04:14:50;;;;;;;9.00;5.10;;;;;;;13.25;55.39;101507.36;104571;1299;67438;-86
2023/07/07 04:18:36;;;;;;;5.70;5.20;;;;;;;13.48;55.36;101509.48;104451;1301;73965;-86
2023/07/07 04:22:22;;;;;;;6.30;5.20;;;;;;;13.44;55.58;101512.48;104379;1297;61215;-85
2023/07/07 04:25:45;;;;;;;5.70;5.20;;;;;;;13.45;55.80;101519.41;104476;1299;61352;-84
2023/07/07 04:29:08;;;;;;;5.70;4.70;;;;;;;13.48;55.93;101521.62;104366;1303;73401;-84
2023/07/07 04:32:35;;;;;;;6.20;4.90;;;;;;;13.53;56.15;101525.15;104658;1289;68455;-85
2023/07/07 04:35:51;;;;;;;6.40;5.60;;;;;;;13.66;56.31;101529.30;105187;1291;72656;-84
2023/07/07 04:39:03;;;;;;;12.10;7.90;;;;;;;13.83;56.28;101527.16;105493;1289;61243;-85
2023/07/07 04:42:09;;;;;;;15.00;11.30;;;;;;;14.04;56.35;101530.11;105134;1289;61084;-85
2023/07/07 04:45:35;;;;;;;13.50;10.40;;;;;;;14.21;56.37;101536.41;105294;1292;74693;-85
2023/07/07 04:49:23;;;;;;;8.40;6.40;;;;;;;14.41;56.46;101536.28;105311;1287;68227;-85
2023/07/07 04:53:07;;;;;;;5.90;5.40;;;;;;;14.61;56.50;101540.60;105247;1291;72070;-85
2023/07/07 04:56:35;;;;;;;8.60;5.90;;;;;;;14.69;56.73;101544.96;105111;1290;61711;-85
2023/07/07 04:59:57;;;;;;;10.40;6.30;;;;;;;14.74;56.83;101541.58;105210;1288;61222;-85
2023/07/07 05:03:43;;;;;;;7.10;6.40;;;;;;;14.94;56.98;101542.77;105245;1288;77386;-85
2023/07/07 05:07:29;;;;;;;9.50;7.40;;;;;;;15.28;57.07;101545.02;105030;1287;67234;-85
2023/07/07 05:11:15;;;;;;;11.30;6.90;;;;;;;15.83;57.14;101544.53;105253;1289;71367;-86
2023/07/07 05:15:01;;;;;;;8.80;7.20;;;;;;;16.64;57.01;101549.47;105089;1288;61122;-85
2023/07/07 05:18:48;;;;;;;7.50;6.80;;;;;;;17.65;56.69;101550.78;105197;1289;61162;-88
2023/07/07 05:22:34;;;;;;;8.80;6.20;;;;;;;18.64;56.32;101548.61;105094;1288;74433;-88
2023/07/07 05:26:21;;;;;;;8.40;5.80;;;;;;;19.63;55.87;101553.69;105535;1286;66705;-88
2023/07/07 05:30:11;;;;;;;6.40;5.70;;;;;;;20.57;55.51;101554.59;104682;1296;71416;-88
2023/07/07 05:33:58;;;;;;;7.20;5.50;;;;;;;21.54;54.92;101554.94;104662;1297;61062;-87
2023/07/07 05:37:44;;;;;;;8.70;5.00;;;;;;;22.50;54.41;101551.98;104695;1297;61580;-87
2023/07/07 05:41:31;;;;;;;5.70;4.60;;;;;;;23.37;54.12;101554.23;104680;1297;74119;-87
2023/07/07 05:45:17;;;;;;;5.10;4.00;;;;;;;24.07;53.73;101558.79;105031;1301;67074;-86
2023/07/07 05:49:03;;;;;;;4.90;3.80;;;;;;;24.65;53.37;101562.43;104697;1297;71918;-87
2023/07/07 05:52:50;;;;;;;6.50;3.60;;;;;;;25.07;53.05;101564.27;104710;1302;61154;-87
2023/07/07 05:56:37;;;;;;;4.60;3.80;;;;;;;25.71;52.58;101568.01;104683;1298;61317;-87
2023/07/07 05:59:45;;;;;;;5.10;3.00;;;;;;;26.22;52.30;101569.20;104662;1297;74863;-85
2023/07/07 06:02:32;;;;;;;6.00;2.80;;;;;;;26.42;52.02;101566.83;105083;1297;67479;-86
2023/07/07 06:05:59;;;;;;;3.10;2.80;;;;;;;26.78;51.64;101567.55;104901;1287;72579;-87
2023/07/07 06:08:49;;;;;;;8.80;2.90;;;;;;;27.15;51.11;101569.38;105502;1291;61255;-85
2023/07/07 06:11:38;;;;;;;4.70;2.90;;;;;;;27.46;51.04;101572.09;105455;1289;61726;-86
2023/07/07 06:14:32;;;;;;;10.30;2.90;;;;;;;27.78;50.56;101576.36;105322;1287;73456;-86
2023/07/07 06:17:27;;;;;;;4.70;2.60;;;;;;;28.05;50.19;101580.55;105532;1291;68618;-86
2023/07/07 06:20:15;;;;;;;4.10;2.80;;;;;;;28.14;49.40;101587.83;105331;1288;71270;-85
2023/07/07 06:23:42;;;;;;;3.70;2.90;;;;;;;28.23;49.67;101590.89;104929;1287;61240;-87
2023/07/07 06:27:28;;;;;;;3.40;2.90;;;;;;;28.58;49.15;101593.20;105259;1288;61321;-87
2023/07/07 06:31:13;;;;;;;2.60;2.40;;;;;;;29.15;48.64;101595.76;105522;1288;73462;-86
2023/07/07 06:34:59;;;;;;;6.20;2.50;;;;;;;29.94;48.04;101599.66;105145;1288;70111;-87
2023/07/07 06:38:28;;;;;;;4.20;2.40;;;;;;;30.50;47.46;101603.86;105206;1288;71983;-86
2023/07/07 06:41:54;;;;;;;2.50;2.10;;;;;;;31.41;46.73;101603.77;106070;1287;63623;-86
2023/07/07 06:45:29;;;;;;;2.40;2.00;;;;;;;32.28;46.16;101607.70;105368;1291;63530;-87
2023/07/07 06:48:56;;;;;;;2.50;2.30;;;;;;;33.19;45.22;101609.77;105767;1287;73475;-87
2023/07/07 06:52:27;;;;;;;3.60;2.50;;;;;;;34.09;45.08;101608.33;105418;1287;71339;-88
2023/07/07 06:55:57;;;;;;;2.60;2.00;;;;;;;34.76;44.37;101606.81;105606;1287;71195;-87
2023/07/07 06:58:44;;;;;;;2.70;2.40;;;;;;;34.90;43.87;101607.70;105546;1288;61151;-86
2023/07/07 07:02:12;;;;;;;2.10;2.00;;;;;;;35.01;43.37;101614.39;105503;1288;59660;-87
2023/07/07 07:05:39;;;;;;;3.40;3.10;;;;;;;35.19;42.73;101614.39;101909;1287;76245;-87
2023/07/07 07:09:25;;;;;;;2.10;2.00;;;;;;;35.72;41.62;101617.90;105500;1288;73471;-87
2023/07/07 07:13:12;;;;;;;3.90;2.00;;;;;;;36.53;40.10;101625.90;105484;1289;61137;-87
2023/07/07 07:16:45;;;;;;;1.80;1.70;;;;;;;37.36;39.22;101618.63;105435;1287;59838;-87
2023/07/07 07:20:12;;;;;;;2.00;1.80;;;;;;;38.23;38.66;101622.40;105479;1288;74500;-87
2023/07/07 07:23:54;;;;;;;1.50;1.40;;;;;;;39.18;37.49;101621.36;105500;1287;67759;-87
2023/07/07 07:26:57;;;;;;;2.30;1.50;;;;;;;39.34;36.49;101621.75;105421;1288;72059;-88
2023/07/07 07:30:07;;;;;;;1.50;1.40;;;;;;;39.03;36.78;101620.80;105365;1288;61138;-87
2023/07/07 07:33:51;;;;;;;2.20;1.80;;;;;;;38.59;36.38;101622.27;105193;1293;61144;-87
2023/07/07 07:37:25;;;;;;;4.40;1.20;;;;;;;38.33;35.98;101628.73;105169;1290;73272;-88
2023/07/07 07:41:08;;;;;;;2.00;1.80;;;;;;;38.54;34.47;101630.09;105100;1293;67275;-87
2023/07/07 07:44:30;;;;;;;1.60;1.50;;;;;;;37.83;33.86;101632.27;105116;1290;71548;-87
2023/07/07 07:47:19;;;;;;;3.80;1.40;;;;;;;37.25;33.49;101631.95;105187;1291;59791;-87
2023/07/07 07:50:43;;;;;;;1.20;1.10;;;;;;;38.26;32.65;101634.81;105020;1292;63675;-87
2023/07/07 07:53:38;;;;;;;1.60;1.50;;;;;;;40.16;31.53;101631.31;105134;1289;74050;-86
2023/07/07 07:57:04;;;;;;;1.50;1.40;;;;;;;41.72;30.18;101640.06;105116;1289;67537;-86
2023/07/07 08:00:12;;;;;;;1.80;1.70;;;;;;;42.97;29.76;101635.58;105097;1289;71276;-86
2023/07/07 08:03:00;;;;;;;1.70;1.60;;;;;;;43.83;28.68;101633.64;104989;1290;59460;-87
2023/07/07 08:06:06;;;;;;;4.30;1.80;;;;;;;44.48;28.24;101641.28;105017;1290;61389;-87
2023/07/07 08:08:56;;;;;;;2.10;2.00;;;;;;;45.63;28.04;101643.75;105212;1291;74466;-87
2023/07/07 08:12:03;;;;;;;2.20;2.10;;;;;;;46.29;27.31;101643.52;105258;1288;67189;-87
2023/07/07 08:14:50;;;;;;;2.80;2.60;;;;;;;46.73;26.55;101643.90;104973;1293;62662;-87
2023/07/07 08:17:36;;;;;;;2.60;2.40;;;;;;;47.00;25.79;101640.67;104835;1295;61180;-88
2023/07/07 08:20:24;;;;;;;3.30;3.10;;;;;;;47.67;25.41;101637.16;104897;1297;61233;-88
2023/07/07 08:23:14;;;;;;;3.20;3.10;;;;;;;48.15;24.68;101632.58;104874;1294;64645;-88
2023/07/07 08:26:01;;;;;;;3.70;3.50;;;;;;;48.64;24.18;101631.47;105090;1293;59924;-88
2023/07/07 08:28:49;;;;;;;3.80;3.60;;;;;;;49.33;23.71;101626.75;104755;1292;64438;-88
2023/07/07 08:31:39;;;;;;;4.70;4.40;;;;;;;49.97;23.05;101626.18;104833;1297;61272;-87
2023/07/07 08:34:26;;;;;;;4.30;4.10;;;;;;;50.29;22.05;101623.80;104903;1292;61187;-88
2023/07/07 08:37:53;;;;;;;5.20;5.00;;;;;;;49.75;21.09;101623.78;104830;1293;64669;-89
2023/07/07 08:41:39;;;;;;;4.90;4.70;;;;;;;49.64;20.84;101624.95;104747;1294;61529;-89
2023/07/07 08:44:28;;;;;;;5.50;5.10;;;;;;;49.86;20.67;101627.02;104994;1294;63864;-88
2023/07/07 08:47:44;;;;;;;5.10;4.90;;;;;;;50.79;20.11;101630.62;105011;1293;59240;-89
2023/07/07 08:50:53;;;;;;;6.70;6.30;;;;;;;51.59;19.26;101625.84;105006;1295;59400;-89
2023/07/07 08:54:19;;;;;;;5.40;5.10;;;;;;;51.75;18.39;101624.16;104944;1294;64932;-89
2023/07/07 08:57:12;;;;;;;5.40;5.10;;;;;;;51.47;17.57;101625.70;104932;1294;61210;-88
2023/07/07 09:00:30;;;;;;;5.50;5.20;;;;;;;50.51;17.28;101624.21;104729;1294;63932;-89
2023/07/07 09:03:39;;;;;;;5.30;5.10;;;;;;;49.58;16.88;101615.51;104825;1297;59624;-89
2023/07/07 09:06:54;;;;;;;4.60;4.10;;;;;;;46.75;16.91;101613.13;105096;1294;59478;-88
2023/07/07 09:10:15;;;;;;;3.60;3.30;;;;;;;43.32;17.02;101607.94;105512;1295;74765;-88
2023/07/07 09:13:40;;;;;;;2.10;2.00;;;;;;;40.17;16.87;101599.52;104959;1294;67387;-88
2023/07/07 09:17:27;;;;;;;3.70;2.10;;;;;;;37.89;17.16;101598.11;105079;1294;71405;-88
2023/07/07 09:20:53;;;;;;;1.70;1.60;;;;;;;36.28;17.25;101596.84;104994;1295;59526;-87
2023/07/07 09:24:27;;;;;;;3.60;1.40;;;;;;;34.33;17.31;101593.98;105082;1294;59312;-87
2023/07/07 09:27:54;;;;;;;;;;;;;;;33.00;17.94;101596.07;105134;1294;76535;-87
2023/07/07 09:31:46;;;;;;;1.50;1.40;;;;;;;32.15;18.10;101595.15;105575;1288;68903;-87
2023/07/07 09:35:33;;;;;;;3.10;1.10;;;;;;;31.24;18.32;101590.88;105658;1288;71974;-87
2023/07/07 09:39:22;;;;;;;1.60;1.40;;;;;;;30.50;18.78;101584.44;105623;1288;61177;-89
2023/07/07 09:43:11;;;;;;;2.00;1.10;;;;;;;29.70;19.23;101590.41;104568;1303;61183;-89
2023/07/07 09:49:26;;;;;;;1.90;1.50;;;;;;;28.74;19.68;101591.48;105701;1287;66264;-89
2023/07/07 09:52:48;;;;;;;5.70;1.50;;;;;;;28.37;20.11;101588.80;105759;1287;71908;-88
2023/07/07 09:56:25;;;;;;;3.20;1.20;;;;;;;28.10;20.55;101593.63;105090;1293;59328;-88
2023/07/07 09:59:56;;;;;;;1.60;1.50;;;;;;;27.81;20.73;101594.21;105175;1294;60313;-88
2023/07/07 10:03:33;;;;;;;1.70;1.30;;;;;;;27.58;21.04;101593.91;105113;1292;73966;-88
2023/07/07 10:07:15;;;;;;;2.90;1.20;;;;;;;27.41;21.36;101590.41;105451;1293;67569;-88
2023/07/07 10:10:44;;;;;;;2.00;1.40;;;;;;;27.22;21.60;101586.04;105160;1293;73947;-88
2023/07/07 10:13:52;;;;;;;3.20;1.50;;;;;;;27.10;21.85;101584.65;105193;1292;61254;-88
2023/07/07 10:17:09;;;;;;;2.50;1.40;;;;;;;27.04;22.13;101585.73;105327;1293;59520;-88
2023/07/07 10:20:56;;;;;;;1.30;1.10;;;;;;;26.87;22.44;101585.71;105716;1293;73178;-89
2023/07/07 10:24:03;;;;;;;1.90;1.20;;;;;;;26.70;22.67;101582.55;105259;1292;66734;-88
2023/07/07 10:27:32;;;;;;;3.20;1.60;;;;;;;26.57;22.93;101582.77;104979;1299;72684;-89
2023/07/07 10:31:14;;;;;;;1.30;1.00;;;;;;;26.53;23.13;101579.15;104957;1296;59307;-88
2023/07/07 10:34:43;;;;;;;1.60;1.20;;;;;;;26.53;23.26;101582.37;105447;1289;59775;-88
2023/07/07 10:38:27;;;;;;;1.30;1.20;;;;;;;26.41;23.32;101582.45;105462;1289;74080;-88
2023/07/07 10:41:54;;;;;;;1.20;1.10;;;;;;;26.35;24.00;101582.86;105146;1290;67403;-88
2023/07/07 10:44:42;;;;;;;3.00;1.40;;;;;;;26.20;24.08;101580.32;105140;1289;72311;-87
2023/07/07 10:48:09;;;;;;;2.10;1.10;;;;;;;26.12;24.25;101577.98;105349;1290;60107;-88
2023/07/07 10:52:11;;;;;;;1.00;1.00;;;;;;;26.13;24.48;101579.89;105411;1292;61138;-88
2023/07/07 10:56:14;;;;;;;3.10;1.40;;;;;;;26.06;24.58;101576.61;104495;1302;73263;-89
2023/07/07 11:00:06;;;;;;;3.90;1.60;;;;;;;25.96;24.84;101572.55;104601;1300;69456;-89
2023/07/07 11:04:05;;;;;;;1.60;1.10;;;;;;;25.94;24.95;101574.45;103830;1309;71187;-89
2023/07/07 11:07:52;;;;;;;1.70;1.10;;;;;;;25.89;25.02;101571.76;103225;1314;61405;-89
2023/07/07 11:11:43;;;;;;;1.80;1.10;;;;;;;25.86;25.49;101568.80;102838;1318;61288;-88
2023/07/07 11:15:47;;;;;;;2.30;1.20;;;;;;;25.98;25.80;101565.35;102022;1331;74507;-88
2023/07/07 11:19:34;;;;;;;2.30;1.00;;;;;;;26.18;25.87;101564.53;102068;1333;70384;-88
2023/07/07 11:23:27;;;;;;;1.50;1.40;;;;;;;26.20;26.01;101566.70;101622;1336;72651;-88
2023/07/07 11:27:19;;;;;;;1.50;1.20;;;;;;;26.13;26.17;101564.90;101458;1344;59495;-88
2023/07/07 11:31:12;;;;;;;1.60;1.40;;;;;;;26.15;26.16;101561.58;101167;1346;61300;-88
2023/07/07 11:34:40;;;;;;;;;;;;;;;26.12;26.47;101559.63;100469;1351;73791;-88
2023/07/07 11:38:12;;;;;;;2.60;1.30;;;;;;;26.14;26.64;101557.23;100247;1354;68789;-85
2023/07/07 11:41:22;;;;;;;1.80;1.60;;;;;;;26.11;26.43;101560.92;101115;1341;72429;-86
2023/07/07 11:44:18;;;;;;;1.70;1.10;;;;;;;26.05;26.93;101551.79;100969;1347;61288;-86
2023/07/07 11:47:29;;;;;;;4.10;1.60;;;;;;;26.02;27.13;101551.42;101229;1341;61118;-85
2023/07/07 11:50:30;;;;;;;3.50;1.30;;;;;;;26.00;27.04;101548.96;101561;1343;74658;-86
2023/07/07 11:53:51;;;;;;;1.40;1.10;;;;;;;25.99;27.08;101548.98;101964;1334;68309;-86
2023/07/07 11:56:56;;;;;;;1.40;1.30;;;;;;;25.92;27.38;101546.66;101782;1335;72309;-85
2023/07/07 12:00:21;;;;;;;1.10;1.10;;;;;;;25.96;27.63;101546.91;102014;1335;59830;-85
2023/07/07 12:03:41;;;;;;;1.40;1.30;;;;;;;26.00;27.49;101540.81;101862;1332;59090;-85
2023/07/07 12:06:52;;;;;;;1.90;1.30;;;;;;;25.96;27.76;101542.50;102139;1326;73464;-86
2023/07/07 12:10:02;;;;;;;1.50;1.40;;;;;;;25.89;27.84;101543.69;102352;1323;68015;-86
2023/07/07 12:13:04;;;;;;;4.10;1.10;;;;;;;25.83;27.87;101546.37;102664;1320;72642;-86
2023/07/07 12:16:11;;;;;;;3.00;1.50;;;;;;;25.80;28.01;101542.50;103607;1311;61255;-86
2023/07/07 12:19:19;;;;;;;1.70;1.60;;;;;;;25.88;28.08;101540.39;103345;1317;59643;-86
2023/07/07 12:22:13;;;;;;;3.20;1.60;;;;;;;25.96;28.11;101538.63;103788;1309;75457;-86
2023/07/07 12:25:04;;;;;;;1.50;1.30;;;;;;;26.04;28.48;101542.14;103877;1308;67416;-85
2023/07/07 12:27:51;;;;;;;1.60;1.40;;;;;;;26.12;28.67;101538.61;103696;1305;71341;-86
2023/07/07 12:30:44;;;;;;;3.00;1.20;;;;;;;26.16;28.33;101534.81;103806;1308;61084;-86
2023/07/07 12:33:43;;;;;;;2.40;1.20;;;;;;;26.15;28.32;101529.42;103885;1302;59803;-86
2023/07/07 12:36:29;;;;;;;2.00;1.20;;;;;;;26.07;28.60;101526.17;96946;1304;10002660;-86
2023/07/07 12:39:16;;;;;;;1.10;1.00;;;;;;;26.05;28.61;101521.05;104322;1296;74063;-86
2023/07/07 12:42:04;;;;;;;0.90;0.90;;;;;;;26.01;28.88;101528.03;104582;1296;61089;-87
2023/07/07 12:45:46;;;;;;;2.10;1.30;;;;;;;26.04;28.76;101521.10;104718;1296;61971;-90
2023/07/07 12:49:43;;;;;;;1.80;1.50;;;;;;;26.05;28.85;101517.84;104840;1296;73631;-89
2023/07/07 12:53:22;;;;;;;1.60;1.30;;;;;;;26.00;28.99;101517.86;105369;1290;68096;-89
2023/07/07 12:57:19;;;;;;;2.60;1.40;;;;;;;26.03;29.20;101510.37;105436;1291;71733;-88
2023/07/07 13:01:07;;;;;;;4.20;1.20;;;;;;;26.05;29.18;101513.07;105453;1292;61270;-88
2023/07/07 13:04:54;;;;;;;3.40;1.20;;;;;;;26.09;29.23;101510.70;105171;1292;61257;-89
2023/07/07 13:08:54;;;;;;;1.80;1.40;;;;;;;26.11;29.30;101506.85;105180;1294;73271;-89
2023/07/07 13:12:37;;;;;;;1.60;1.50;;;;;;;26.11;29.25;101505.27;105228;1291;68350;-89
2023/07/07 13:16:22;;;;;;;5.40;1.30;;;;;;;26.14;29.40;101509.00;105344;1291;72531;-89
2023/07/07 13:20:05;;;;;;;5.50;1.20;;;;;;;26.11;29.34;101503.12;105082;1294;60946;-89
2023/07/07 13:24:03;;;;;;;1.30;1.20;;;;;;;26.09;29.59;101502.60;105038;1294;61055;-90
2023/07/07 13:27:54;;;;;;;3.10;1.40;;;;;;;26.14;29.64;101511.60;104552;1300;73674;-89
2023/07/07 13:31:38;;;;;;;1.50;1.40;;;;;;;26.17;29.62;101506.29;105027;1301;69117;-90
2023/07/07 13:35:24;;;;;;;2.80;1.00;;;;;;;26.21;29.80;101506.21;104552;1299;72533;-90
2023/07/07 13:39:09;;;;;;;1.70;1.20;;;;;;;26.22;29.68;101507.34;104652;1299;61173;-89
2023/07/07 13:42:58;;;;;;;1.10;1.00;;;;;;;26.17;29.69;101504.53;104531;1299;61061;-90
2023/07/07 13:46:44;;;;;;;1.90;1.70;;;;;;;26.15;29.78;101503.41;104563;1299;75006;-89
2023/07/07 13:50:38;;;;;;;1.90;1.30;;;;;;;26.20;29.78;101500.04;104516;1298;67411;-90
2023/07/07 13:54:25;;;;;;;2.10;1.40;;;;;;;26.24;29.94;101502.59;104433;1295;71336;-90
2023/07/07 13:58:10;;;;;;;1.60;1.00;;;;;;;26.29;29.97;101502.31;105157;1296;61303;-89
2023/07/07 14:02:03;;;;;;;2.00;1.10;;;;;;;26.32;29.91;101493.94;104817;1296;59292;-89
2023/07/07 14:05:53;;;;;;;1.50;1.30;;;;;;;26.36;29.97;101497.58;105046;1292;73211;-89
2023/07/07 14:09:40;;;;;;;3.20;1.40;;;;;;;26.34;29.83;101495.27;105100;1291;68138;-89
2023/07/07 14:13:26;;;;;;;1.10;1.00;;;;;;;26.31;29.80;101486.96;105081;1291;72682;-89
2023/07/07 14:17:12;;;;;;;1.50;1.20;;;;;;;26.27;29.89;101489.36;105128;1291;61350;-89
2023/07/07 14:20:59;;;;;;;1.70;1.50;;;;;;;26.24;29.89;101483.34;105095;1292;61184;-89
2023/07/07 14:24:46;;;;;;;1.90;1.60;;;;;;;26.20;30.12;101482.71;105150;1291;73518;-89
2023/07/07 14:28:33;;;;;;;1.40;1.30;;;;;;;26.19;29.85;101483.34;105042;1291;69963;-89
2023/07/07 14:32:19;;;;;;;3.30;1.40;;;;;;;26.14;30.09;101477.84;105112;1291;70925;-89
2023/07/07 14:36:15;;;;;;;3.50;1.60;;;;;;;26.15;30.14;101471.04;105014;1292;61253;-89
2023/07/07 14:40:04;;;;;;;1.70;1.30;;;;;;;26.18;30.33;101470.34;105081;1294;61662;-89
2023/07/07 14:43:57;;;;;;;1.60;1.30;;;;;;;26.24;30.35;101472.21;105362;1287;73311;-87
2023/07/07 14:47:44;;;;;;;1.50;1.30;;;;;;;26.26;30.23;101467.85;105333;1287;67294;-87
2023/07/07 14:51:30;;;;;;;1.40;1.20;;;;;;;26.26;30.30;101464.10;105037;1292;71376;-87
2023/07/07 14:55:17;;;;;;;2.90;1.10;;;;;;;26.28;30.23;101456.04;104962;1292;59267;-87
2023/07/07 14:59:03;;;;;;;3.50;1.70;;;;;;;26.25;30.17;101458.54;105095;1290;61230;-87
2023/07/07 15:02:51;;;;;;;2.40;1.10;;;;;;;26.22;30.20;101467.94;105028;1294;74514;-89
2023/07/07 15:06:46;;;;;;;1.60;1.30;;;;;;;26.15;30.12;101460.45;105002;1294;67281;-87
2023/07/07 15:10:30;;;;;;;1.60;1.50;;;;;;;26.06;30.16;101457.18;105031;1293;72922;-87
2023/07/07 15:14:16;;;;;;;6.50;1.50;;;;;;;26.03;30.41;101454.90;105059;1293;61170;-88
2023/07/07 15:18:03;;;;;;;1.70;1.60;;;;;;;26.02;30.45;101455.14;105055;1292;61148;-88
2023/07/07 15:21:50;;;;;;;3.70;1.20;;;;;;;26.01;30.54;101452.02;105003;1295;73390;-89
2023/07/07 15:25:36;;;;;;;2.50;1.50;;;;;;;26.02;30.64;101451.08;105005;1292;67525;-88
2023/07/07 15:29:23;;;;;;;1.60;1.30;;;;;;;26.02;30.72;101447.69;105330;1287;71426;-87
2023/07/07 15:33:09;;;;;;;2.00;1.50;;;;;;;26.07;30.81;101447.40;105382;1288;61652;-88
2023/07/07 15:36:56;;;;;;;1.60;1.40;;;;;;;26.06;30.78;101443.88;105457;1287;61288;-87
2023/07/07 15:40:42;;;;;;;3.70;1.80;;;;;;;26.04;30.74;101446.35;105107;1291;75363;-88
2023/07/07 15:44:29;;;;;;;2.50;1.70;;;;;;;26.04;30.88;101443.67;105050;1291;69508;-88
2023/07/07 15:48:15;;;;;;;1.50;1.40;;;;;;;26.05;30.91;101439.56;105166;1296;71245;-87
2023/07/07 15:52:14;;;;;;;3.30;1.50;;;;;;;26.05;30.96;101442.39;105132;1291;61217;-88
2023/07/07 15:56:00;;;;;;;1.80;1.10;;;;;;;26.02;30.66;101442.79;105178;1291;61270;-89
2023/07/07 15:59:53;;;;;;;2.90;1.50;;;;;;;26.02;30.78;101440.52;105188;1291;73301;-89
2023/07/07 16:03:40;;;;;;;2.70;1.60;;;;;;;26.00;30.77;101441.49;105173;1291;68450;-89
2023/07/07 16:07:32;;;;;;;2.40;1.20;;;;;;;26.01;30.75;101441.98;105253;1291;70647;-89
2023/07/07 16:11:19;;;;;;;1.00;0.90;;;;;;;25.98;30.61;101441.88;105176;1295;61276;-88
2023/07/07 16:15:06;;;;;;;1.70;1.20;;;;;;;25.94;30.70;101441.78;105266;1291;60085;-89
2023/07/07 16:18:52;;;;;;;1.30;1.20;;;;;;;25.90;30.65;101436.92;104986;1294;73431;-88
2023/07/07 16:22:39;;;;;;;1.70;1.30;;;;;;;25.86;30.59;101427.14;104977;1294;68098;-89
2023/07/07 16:26:26;;;;;;;1.80;1.20;;;;;;;25.84;30.59;101429.23;104901;1294;71217;-89
2023/07/07 16:30:13;;;;;;;2.10;1.30;;;;;;;25.82;30.62;101430.58;104926;1294;60110;-89